Time;durP1;ratioP1;P1;durP2;ratioP2;P2;SDS_P1;SDS_P2;PMS_P1;PMS_P2;Temp;Humidity;BMP_temperature;BMP_pressure;BME280_temperature;BME280_humidity;BME280_pressure;Samples;Min_cycle;Max_cycle;Signal;HPM_P1;HPM_P2
2021/12/03 00:00:53;;;;;;;5.88;2.40;;;;;;;12.35;50.61;99817.41;5033145;28;20706;-79
2021/12/03 00:03:19;;;;;;;2.72;2.10;;;;;;;12.40;50.25;99820.31;5033407;28;20202;-80
2021/12/03 00:05:45;;;;;;;3.58;2.45;;;;;;;12.44;49.91;99818.06;5033508;28;20343;-80
2021/12/03 00:08:11;;;;;;;3.67;2.35;;;;;;;12.25;49.82;99781.59;5033868;28;20217;-80
2021/12/03 00:10:38;;;;;;;4.43;2.60;;;;;;;12.44;49.76;99824.88;5033610;28;20183;-79
2021/12/03 00:13:06;;;;;;;3.95;2.20;;;;;;;12.12;49.74;99777.28;5033306;28;20180;-79
2021/12/03 00:15:32;;;;;;;3.85;2.35;;;;;;;12.19;49.88;99791.44;5033737;28;20635;-80
2021/12/03 00:17:58;;;;;;;3.78;2.45;;;;;;;12.44;49.70;99822.31;5034058;28;20722;-79
2021/12/03 00:20:25;;;;;;;2.47;2.28;;;;;;;12.48;49.55;99837.13;5033400;28;20287;-80
2021/12/03 00:22:55;;;;;;;3.50;2.42;;;;;;;12.45;49.60;99858.38;5032475;28;20546;-79
2021/12/03 00:25:21;;;;;;;2.47;2.28;;;;;;;12.16;49.52;99794.69;5033687;28;20259;-79
2021/12/03 00:27:46;;;;;;;3.42;2.53;;;;;;;12.36;50.28;99841.41;5033431;28;20341;-79
2021/12/03 00:30:14;;;;;;;6.00;2.67;;;;;;;12.05;49.89;99781.84;5032960;28;20175;-80
2021/12/03 00:32:40;;;;;;;4.63;2.53;;;;;;;12.30;50.23;99841.88;5015276;28;20194;-81
2021/12/03 00:35:09;;;;;;;3.55;2.58;;;;;;;12.23;50.32;99826.81;5033173;28;20191;-80
2021/12/03 00:37:35;;;;;;;3.05;2.38;;;;;;;12.14;50.23;99827.03;5033302;28;20180;-80
2021/12/03 00:40:00;;;;;;;3.45;2.78;;;;;;;12.20;50.44;99835.19;5033110;28;20655;-80
2021/12/03 00:42:28;;;;;;;3.28;2.28;;;;;;;11.99;50.72;99807.97;5033294;28;20208;-79
2021/12/03 00:44:55;;;;;;;3.10;2.33;;;;;;;11.72;50.64;99760.69;5032881;28;20216;-80
2021/12/03 00:47:21;;;;;;;3.33;2.40;;;;;;;11.91;50.82;99791.16;5033076;28;20659;-80
2021/12/03 00:49:47;;;;;;;2.90;2.45;;;;;;;12.06;50.79;99825.63;5032997;28;20287;-80
2021/12/03 00:52:13;;;;;;;3.63;2.38;;;;;;;12.05;50.75;99820.38;5033792;28;20229;-80
2021/12/03 00:54:39;;;;;;;4.15;2.08;;;;;;;11.98;50.71;99812.22;5033586;28;20176;-80
2021/12/03 00:57:04;;;;;;;2.47;2.20;;;;;;;11.95;50.78;99817.13;5033274;28;20172;-80
2021/12/03 00:59:30;;;;;;;3.58;2.10;;;;;;;12.01;50.53;99819.25;5032952;28;20226;-81
2021/12/03 01:01:56;;;;;;;2.92;2.22;;;;;;;11.93;50.12;99805.88;5033095;28;20207;-80
2021/12/03 01:04:21;;;;;;;3.45;2.22;;;;;;;11.94;50.21;99804.22;5032457;28;20169;-80
2021/12/03 01:06:47;;;;;;;3.15;2.28;;;;;;;11.55;50.05;99737.25;5032708;28;20168;-79
2021/12/03 01:09:14;;;;;;;2.90;2.25;;;;;;;11.97;50.40;99809.56;5032543;28;20187;-80
2021/12/03 01:11:39;;;;;;;3.53;2.47;;;;;;;11.92;50.18;99792.94;5032511;28;20646;-79
2021/12/03 01:14:05;;;;;;;5.78;2.47;;;;;;;11.80;50.13;99775.81;5033013;28;20204;-81
2021/12/03 01:16:31;;;;;;;6.78;2.60;;;;;;;12.02;50.23;99792.78;5032403;28;20172;-80
2021/12/03 01:18:57;;;;;;;3.05;2.30;;;;;;;12.11;49.77;99798.59;5032700;28;20176;-80
2021/12/03 01:21:24;;;;;;;7.55;3.53;;;;;;;12.11;49.83;99797.69;5032701;28;20691;-80
2021/12/03 01:23:50;;;;;;;2.85;2.35;;;;;;;12.10;49.65;99790.78;5032428;28;20689;-79
2021/12/03 01:26:16;;;;;;;2.30;2.10;;;;;;;11.67;49.22;99715.81;5032350;28;20183;-79
2021/12/03 01:28:43;;;;;;;4.35;2.35;;;;;;;12.20;49.69;99788.97;5031992;28;20176;-81
2021/12/03 01:31:08;;;;;;;2.40;2.20;;;;;;;11.81;48.92;99702.31;5032434;28;20194;-80
2021/12/03 01:33:34;;;;;;;2.75;2.10;;;;;;;12.27;48.93;99767.16;5032137;28;20636;-81
2021/12/03 01:36:00;;;;;;;2.65;2.10;;;;;;;12.36;48.83;99779.75;5031875;28;20263;-79
2021/12/03 01:38:26;;;;;;;6.72;2.40;;;;;;;12.18;49.07;99766.53;5014351;28;20187;-80
2021/12/03 01:40:51;;;;;;;3.50;1.80;;;;;;;12.10;48.64;99734.28;5031852;28;20333;-80
2021/12/03 01:43:25;;;;;;;3.22;2.35;;;;;;;12.25;48.52;99766.19;5031884;28;20176;-79
2021/12/03 01:45:54;;;;;;;5.75;3.28;;;;;;;12.22;49.14;99773.69;5031829;28;20616;-80
2021/12/03 01:48:20;;;;;;;3.35;2.42;;;;;;;11.96;49.48;99726.53;5031907;28;20226;-80
2021/12/03 01:50:46;;;;;;;2.97;2.40;;;;;;;12.09;49.32;99765.91;5032002;28;20171;-79
2021/12/03 01:53:14;;;;;;;3.38;2.50;;;;;;;12.00;49.58;99759.31;5031927;28;20670;-80
2021/12/03 01:55:43;;;;;;;3.20;2.42;;;;;;;12.04;49.70;99763.00;5031977;28;20699;-81
2021/12/03 01:58:09;;;;;;;2.95;2.40;;;;;;;12.05;49.58;99761.31;5032534;28;20204;-79
2021/12/03 02:00:51;;;;;;;4.07;2.70;;;;;;;11.81;49.76;99738.25;5032589;28;20175;-79
2021/12/03 02:03:18;;;;;;;3.15;2.25;;;;;;;11.97;49.92;99755.66;5031973;28;20537;-80
2021/12/03 02:05:45;;;;;;;2.75;2.20;;;;;;;11.89;50.25;99743.94;5032058;28;20303;-79
2021/12/03 02:08:11;;;;;;;3.30;2.38;;;;;;;11.80;50.25;99742.47;5031847;28;20176;-79
2021/12/03 02:10:38;;;;;;;6.70;3.17;;;;;;;11.70;50.41;99737.47;5047754;28;20212;-77
2021/12/03 02:13:04;;;;;;;5.43;2.30;;;;;;;11.57;50.57;99716.84;5014435;28;20180;-80
2021/12/03 02:15:30;;;;;;;2.97;2.08;;;;;;;11.78;50.50;99758.56;5032727;28;20601;-79
2021/12/03 02:17:56;;;;;;;4.60;2.42;;;;;;;11.65;50.58;99730.22;5034052;28;20243;-80
2021/12/03 02:20:21;;;;;;;3.20;2.45;;;;;;;11.87;50.29;99742.94;5037564;28;20183;-77
2021/12/03 02:22:48;;;;;;;2.75;2.25;;;;;;;11.44;50.21;99680.84;5036658;28;20204;-81
2021/12/03 02:25:22;;;;;;;2.75;2.33;;;;;;;11.75;50.68;99751.53;5034112;28;20175;-79
2021/12/03 02:27:49;;;;;;;2.90;2.42;;;;;;;11.34;50.70;99692.13;5031432;28;20175;-81
2021/12/03 02:30:15;;;;;;;2.60;2.22;;;;;;;11.71;50.33;99736.69;5031219;28;20172;-80
2021/12/03 02:32:40;;;;;;;12.73;6.32;;;;;;;11.78;50.66;99744.03;5031636;28;20191;-80
2021/12/03 02:35:07;;;;;;;4.68;2.83;;;;;;;11.82;50.60;99737.44;5030907;28;20219;-81
2021/12/03 02:37:32;;;;;;;3.47;2.50;;;;;;;11.77;50.42;99738.78;5031282;28;20169;-81
2021/12/03 02:39:58;;;;;;;2.97;2.22;;;;;;;11.78;50.77;99748.28;5031320;28;20184;-81
2021/12/03 02:42:23;;;;;;;2.60;2.22;;;;;;;11.73;50.53;99760.78;5031051;28;20208;-79
2021/12/03 02:44:49;;;;;;;5.30;2.00;;;;;;;11.66;50.43;99742.28;5031142;28;20632;-79
2021/12/03 02:47:14;;;;;;;3.35;2.13;;;;;;;11.66;50.86;99753.44;5033430;28;20555;-79
2021/12/03 02:49:41;;;;;;;2.72;2.08;;;;;;;11.64;50.92;99757.56;5034765;28;20691;-80
2021/12/03 02:52:08;;;;;;;2.83;2.05;;;;;;;11.49;51.25;99744.50;5034548;28;20183;-82
2021/12/03 02:54:35;;;;;;;5.47;2.83;;;;;;;11.16;51.75;99703.59;5016939;28;20683;-79
2021/12/03 02:57:02;;;;;;;2.72;2.28;;;;;;;11.46;51.41;99757.09;5034920;28;20349;-79
2021/12/03 02:59:27;;;;;;;4.70;2.85;;;;;;;11.39;51.71;99756.56;5034532;28;20204;-80
2021/12/03 03:01:53;;;;;;;3.50;2.03;;;;;;;11.24;51.42;99721.31;5034654;28;20246;-80
2021/12/03 03:04:18;;;;;;;2.60;2.08;;;;;;;11.49;51.34;99772.72;5016879;28;20180;-79
2021/12/03 03:06:44;;;;;;;3.65;2.13;;;;;;;11.12;51.18;99710.19;5034670;28;20198;-81
2021/12/03 03:09:11;;;;;;;2.85;2.53;;;;;;;11.42;51.48;99774.75;5034692;28;20168;-80
2021/12/03 03:11:38;;;;;;;2.25;2.05;;;;;;;11.44;51.42;99770.63;5034857;28;20200;-80
2021/12/03 03:14:05;;;;;;;3.72;2.67;;;;;;;11.45;51.01;99765.59;5034758;28;20571;-80
2021/12/03 03:16:31;;;;;;;3.38;2.10;;;;;;;11.45;51.47;99755.31;5034403;28;20215;-79
2021/12/03 03:18:57;;;;;;;4.80;2.75;;;;;;;11.58;51.22;99759.66;5034579;28;20175;-80
2021/12/03 03:21:22;;;;;;;6.30;2.45;;;;;;;11.65;51.10;99764.50;5034331;28;20233;-79
2021/12/03 03:23:48;;;;;;;3.10;2.20;;;;;;;11.63;50.73;99758.34;5033979;28;20255;-81
2021/12/03 03:26:14;;;;;;;2.83;2.30;;;;;;;11.69;50.74;99753.66;5034464;28;20251;-80
2021/12/03 03:28:40;;;;;;;4.72;2.22;;;;;;;11.66;50.45;99735.47;5035014;28;20204;-80
2021/12/03 03:31:06;;;;;;;3.50;2.40;;;;;;;11.70;50.08;99751.97;5035230;28;20258;-82
2021/12/03 03:33:32;;;;;;;5.15;2.08;;;;;;;11.71;50.46;99758.88;5034488;28;20175;-81
2021/12/03 03:35:58;;;;;;;2.92;2.08;;;;;;;11.82;50.39;99762.22;5034081;28;20172;-81
2021/12/03 03:38:24;;;;;;;8.25;5.32;;;;;;;11.72;49.96;99746.16;5033923;28;20195;-80
2021/12/03 03:40:49;;;;;;;2.38;2.03;;;;;;;11.48;50.09;99718.75;5033911;28;20257;-81
2021/12/03 03:43:16;;;;;;;2.42;2.08;;;;;;;11.68;50.45;99756.09;5033970;28;20183;-81
2021/12/03 03:45:42;;;;;;;3.45;2.53;;;;;;;11.65;50.04;99732.78;5033870;28;20175;-81
2021/12/03 03:48:08;;;;;;;2.35;2.15;;;;;;;11.69;50.11;99765.59;5033817;28;20220;-81
2021/12/03 03:50:34;;;;;;;2.65;2.10;;;;;;;11.61;50.32;99757.31;5039252;28;20183;-81
2021/12/03 03:52:59;;;;;;;5.93;2.60;;;;;;;11.62;50.37;99745.38;5041304;28;20167;-78
2021/12/03 03:55:25;;;;;;;3.53;2.20;;;;;;;11.54;50.69;99732.03;5038519;28;20191;-79
2021/12/03 03:57:54;;;;;;;3.45;2.72;;;;;;;11.69;50.50;99747.63;5039105;28;20661;-80
2021/12/03 04:00:28;;;;;;;4.18;2.40;;;;;;;11.69;49.93;99732.25;5035455;28;20175;-80
2021/12/03 04:02:54;;;;;;;3.03;2.15;;;;;;;11.88;49.86;99762.69;5034936;28;20274;-81
2021/12/03 04:05:20;;;;;;;4.63;2.30;;;;;;;11.84;50.11;99771.81;5034234;28;20275;-79
2021/12/03 04:07:46;;;;;;;3.50;2.20;;;;;;;11.74;50.05;99751.41;5034066;28;20183;-80
2021/12/03 04:10:11;;;;;;;4.80;2.85;;;;;;;11.73;50.19;99737.69;5033934;28;20172;-81
2021/12/03 04:12:37;;;;;;;3.30;2.45;;;;;;;11.76;50.59;99752.41;5034492;28;20172;-80
2021/12/03 04:15:08;;;;;;;4.18;2.35;;;;;;;11.78;50.83;99767.16;5034165;28;20172;-79
2021/12/03 04:17:34;;;;;;;2.58;2.30;;;;;;;11.75;50.69;99742.94;5033976;28;20217;-81
2021/12/03 04:20:00;;;;;;;3.40;2.58;;;;;;;11.75;50.45;99748.97;5033692;28;20175;-79
2021/12/03 04:22:26;;;;;;;5.88;2.60;;;;;;;11.76;50.59;99739.59;5015963;28;20203;-80
2021/12/03 04:24:55;;;;;;;4.15;2.63;;;;;;;11.80;50.85;99750.16;5033870;28;20172;-78
2021/12/03 04:27:20;;;;;;;2.80;2.47;;;;;;;11.57;50.46;99711.72;5034038;28;20715;-79
2021/12/03 04:29:46;;;;;;;5.15;2.20;;;;;;;11.86;50.38;99747.19;5015904;28;20214;-80
2021/12/03 04:32:12;;;;;;;3.90;2.70;;;;;;;11.64;50.19;99729.31;5033564;28;20179;-79
2021/12/03 04:34:39;;;;;;;3.55;2.60;;;;;;;11.77;50.19;99749.97;5033590;28;20180;-80
2021/12/03 04:37:04;;;;;;;4.18;2.53;;;;;;;11.42;50.36;99683.28;5033278;28;20168;-81
2021/12/03 04:39:30;;;;;;;5.55;2.50;;;;;;;11.82;50.25;99736.56;5033079;28;20175;-80
2021/12/03 04:41:56;;;;;;;2.90;2.60;;;;;;;11.94;50.38;99756.31;5033667;28;20709;-79
2021/12/03 04:44:21;;;;;;;3.75;2.55;;;;;;;11.98;50.55;99749.72;5034035;28;20176;-79
2021/12/03 04:46:47;;;;;;;6.38;2.78;;;;;;;12.06;49.89;99734.88;5017078;28;20318;-78
2021/12/03 04:49:12;;;;;;;3.58;2.72;;;;;;;12.13;50.31;99748.25;5035616;28;20187;-83
2021/12/03 04:51:38;;;;;;;2.97;2.30;;;;;;;12.06;50.12;99745.16;5033746;28;20179;-80
2021/12/03 04:54:03;;;;;;;3.58;2.50;;;;;;;12.12;50.07;99753.25;5033291;28;20679;-80
2021/12/03 04:56:29;;;;;;;3.08;2.70;;;;;;;11.93;50.58;99712.56;5038746;28;20179;-80
2021/12/03 04:58:54;;;;;;;6.47;3.65;;;;;;;11.90;50.22;99690.16;5037377;28;20172;-81
2021/12/03 05:01:20;;;;;;;8.05;3.53;;;;;;;11.88;50.18;99696.84;5039666;28;20218;-82
2021/12/03 05:03:45;;;;;;;7.57;4.55;;;;;;;12.22;49.89;99735.16;5039574;28;20324;-84
2021/12/03 05:06:15;;;;;;;3.63;2.42;;;;;;;11.65;50.22;99643.91;5014527;28;20231;-86
2021/12/03 05:08:41;;;;;;;7.88;4.60;;;;;;;11.86;50.04;99670.19;5015272;28;20671;-84
2021/12/03 05:11:07;;;;;;;10.90;5.63;;;;;;;12.19;49.68;99701.56;5014736;28;20184;-85
2021/12/03 05:13:35;;;;;;;3.25;2.45;;;;;;;12.43;49.42;99728.94;5014748;28;20670;-84
2021/12/03 05:16:02;;;;;;;8.80;3.75;;;;;;;12.00;49.74;99650.63;5015967;28;20711;-85
2021/12/03 05:18:29;;;;;;;5.75;3.28;;;;;;;12.03;49.79;99668.78;5012630;28;20215;-81
2021/12/03 05:20:57;;;;;;;11.48;6.10;;;;;;;12.41;49.85;99724.47;5012945;28;20291;-81
2021/12/03 05:23:24;;;;;;;3.83;2.28;;;;;;;12.41;49.74;99745.03;5012594;28;20184;-79
2021/12/03 05:25:49;;;;;;;4.03;2.33;;;;;;;12.24;49.87;99719.06;5012424;28;20181;-80
2021/12/03 05:28:16;;;;;;;5.22;2.75;;;;;;;12.31;50.22;99735.78;5045040;28;20235;-80
2021/12/03 05:30:42;;;;;;;4.40;2.47;;;;;;;12.29;50.55;99742.50;5012233;28;20177;-81
2021/12/03 05:33:08;;;;;;;3.65;2.50;;;;;;;12.28;50.51;99732.13;5016131;28;20184;-90
2021/12/03 05:35:34;;;;;;;5.32;2.70;;;;;;;12.02;50.79;99697.81;5046830;28;20180;-83
2021/12/03 05:37:59;;;;;;;6.18;2.50;;;;;;;12.23;50.79;99742.94;5015597;28;20636;-84
2021/12/03 05:40:25;;;;;;;3.75;2.35;;;;;;;11.83;50.87;99662.22;5014735;28;20648;-86
2021/12/03 05:42:51;;;;;;;4.03;2.22;;;;;;;12.22;51.18;99735.16;5012687;28;20597;-84
2021/12/03 05:45:22;;;;;;;4.03;2.63;;;;;;;12.24;51.32;99751.53;5013921;28;20243;-83
2021/12/03 05:47:47;;;;;;;3.60;2.78;;;;;;;12.05;51.08;99720.22;5013739;28;20198;-82
2021/12/03 05:50:14;;;;;;;4.38;3.00;;;;;;;12.29;51.07;99757.00;5013077;28;20172;-82
2021/12/03 05:52:39;;;;;;;6.00;3.15;;;;;;;12.22;51.18;99745.44;5012793;28;20206;-79
2021/12/03 05:55:06;;;;;;;5.38;2.80;;;;;;;12.20;51.44;99744.41;5011794;28;20231;-79
2021/12/03 05:57:32;;;;;;;5.30;3.38;;;;;;;12.27;51.33;99749.19;5011902;28;20443;-77
2021/12/03 05:59:58;;;;;;;9.50;3.50;;;;;;;12.06;51.53;99714.34;5011444;28;20796;-78
2021/12/03 06:02:23;;;;;;;3.97;3.08;;;;;;;12.39;53.51;99747.47;5012279;28;20211;-78
2021/12/03 06:04:49;;;;;;;11.07;3.60;;;;;;;12.58;52.24;99746.16;5016909;28;20219;-81
2021/12/03 06:07:14;;;;;;;6.40;2.97;;;;;;;12.71;52.35;99747.13;5031346;28;20631;-79
2021/12/03 06:09:41;;;;;;;7.03;2.90;;;;;;;12.81;50.40;99743.47;5031496;28;20197;-78
2021/12/03 06:12:07;;;;;;;5.78;3.35;;;;;;;12.58;50.21;99687.94;5013362;28;20183;-77
2021/12/03 06:14:33;;;;;;;4.80;3.30;;;;;;;12.79;49.89;99719.34;5031528;28;20176;-81
2021/12/03 06:16:58;;;;;;;20.50;6.38;;;;;;;12.78;50.20;99734.69;5031779;28;20183;-81
2021/12/03 06:19:24;;;;;;;9.50;4.22;;;;;;;12.87;50.43;99738.75;5031683;28;20168;-81
2021/12/03 06:21:51;;;;;;;4.20;3.38;;;;;;;12.42;50.61;99673.19;5035051;28;20333;-83
2021/12/03 06:24:17;;;;;;;6.72;2.90;;;;;;;12.90;50.29;99727.78;5035338;28;20180;-83
2021/12/03 06:26:42;;;;;;;5.90;2.90;;;;;;;12.71;50.16;99707.69;5018645;28;20172;-80
2021/12/03 06:29:08;;;;;;;6.40;3.13;;;;;;;12.97;50.46;99754.78;5035018;28;20167;-79
2021/12/03 06:31:34;;;;;;;3.47;2.70;;;;;;;12.94;50.14;99764.06;5035224;28;20655;-83
2021/12/03 06:34:00;;;;;;;5.97;3.70;;;;;;;12.95;50.22;99764.97;5017241;28;20234;-82
2021/12/03 06:36:25;;;;;;;6.18;4.03;;;;;;;12.98;50.10;99757.44;5035882;28;20238;-83
2021/12/03 06:38:51;;;;;;;4.53;3.33;;;;;;;12.97;50.32;99763.38;5035660;28;20180;-81
2021/12/03 06:41:17;;;;;;;9.23;3.92;;;;;;;12.85;50.84;99734.28;5035214;28;20261;-77
2021/12/03 06:43:42;;;;;;;4.90;3.40;;;;;;;13.03;50.38;99760.34;5017362;28;20176;-81
2021/12/03 06:46:08;;;;;;;5.10;3.08;;;;;;;13.05;50.59;99766.47;5035081;28;20655;-79
2021/12/03 06:48:33;;;;;;;5.18;3.10;;;;;;;13.18;50.18;99763.94;5035030;28;20203;-79
2021/12/03 06:51:00;;;;;;;8.52;3.72;;;;;;;13.28;49.70;99762.88;5035386;28;20176;-81
2021/12/03 06:53:34;;;;;;;5.70;3.60;;;;;;;13.25;50.03;99776.44;5017342;28;20470;-80
2021/12/03 06:56:05;;;;;;;8.02;3.90;;;;;;;13.31;50.02;99766.53;5017411;28;20176;-82
2021/12/03 06:58:31;;;;;;;6.50;4.35;;;;;;;13.31;50.06;99775.94;5051374;28;20160;-87
2021/12/03 07:00:57;;;;;;;6.05;3.53;;;;;;;13.37;50.09;99784.06;5035592;28;20270;-87
2021/12/03 07:03:23;;;;;;;4.90;3.13;;;;;;;13.34;50.12;99778.72;5036432;28;20636;-87
2021/12/03 07:05:48;;;;;;;4.93;3.42;;;;;;;13.42;50.48;99782.69;5037070;28;20311;-88
2021/12/03 07:08:14;;;;;;;5.65;3.30;;;;;;;13.35;50.33;99786.53;5038511;28;20180;-86
2021/12/03 07:10:41;;;;;;;6.80;3.03;;;;;;;13.36;50.24;99792.56;5041833;28;20168;-79
2021/12/03 07:13:07;;;;;;;5.00;3.05;;;;;;;13.10;50.45;99765.09;5042681;28;20176;-83
2021/12/03 07:15:33;;;;;;;4.47;3.15;;;;;;;13.36;50.56;99798.63;5039706;28;20262;-84
2021/12/03 07:17:58;;;;;;;5.50;3.40;;;;;;;13.14;50.87;99770.53;5035745;28;20278;-86
2021/12/03 07:20:25;;;;;;;4.70;2.90;;;;;;;13.39;50.64;99798.84;5035490;28;20176;-85
2021/12/03 07:22:51;;;;;;;7.65;3.22;;;;;;;13.43;50.56;99770.69;5034653;28;20615;-82
2021/12/03 07:25:17;;;;;;;6.25;3.60;;;;;;;13.40;50.29;99769.72;5035067;28;20179;-82
2021/12/03 07:27:43;;;;;;;6.13;3.50;;;;;;;13.53;50.67;99794.56;5034503;28;20234;-78
2021/12/03 07:30:11;;;;;;;3.97;3.20;;;;;;;13.58;50.59;99805.16;5033756;28;20176;-79
2021/12/03 07:32:36;;;;;;;3.80;2.40;;;;;;;13.75;49.78;99813.97;5033662;28;20176;-81
2021/12/03 07:35:03;;;;;;;4.75;2.92;;;;;;;13.63;50.58;99814.97;5033998;28;20180;-81
2021/12/03 07:37:28;;;;;;;3.90;2.92;;;;;;;13.67;50.41;99789.41;5034494;28;20183;-82
2021/12/03 07:40:04;;;;;;;7.30;3.38;;;;;;;13.50;50.53;99758.34;5034186;28;20675;-84
2021/12/03 07:42:30;;;;;;;11.02;3.70;;;;;;;13.75;50.17;99789.13;5033755;28;20341;-83
2021/12/03 07:44:56;;;;;;;4.32;2.70;;;;;;;13.80;50.40;99795.47;5033676;28;20241;-81
2021/12/03 07:47:21;;;;;;;4.63;3.22;;;;;;;13.84;50.42;99783.69;5034175;28;20258;-87
2021/12/03 07:49:48;;;;;;;4.13;3.10;;;;;;;13.94;50.71;99798.91;5034393;28;20168;-88
2021/12/03 07:52:15;;;;;;;5.97;3.28;;;;;;;13.75;50.89;99759.91;5034377;28;20172;-88
2021/12/03 07:54:41;;;;;;;12.68;3.28;;;;;;;14.00;51.06;99790.69;5033568;28;20180;-82
2021/12/03 07:57:07;;;;;;;6.90;3.10;;;;;;;14.02;51.39;99779.69;5015896;28;20168;-84
2021/12/03 07:59:32;;;;;;;5.10;2.85;;;;;;;14.13;51.37;99787.19;5033675;28;20675;-84
2021/12/03 08:01:58;;;;;;;5.72;3.90;;;;;;;14.07;51.70;99796.31;5033290;28;20207;-82
2021/12/03 08:04:23;;;;;;;4.65;2.60;;;;;;;14.05;51.81;99781.59;5033529;28;20178;-89
2021/12/03 08:06:52;;;;;;;4.35;3.05;;;;;;;14.06;51.81;99767.91;5034914;28;20168;-86
2021/12/03 08:09:18;;;;;;;5.80;3.10;;;;;;;14.27;51.38;99765.78;5051077;28;20176;-83
2021/12/03 08:11:45;;;;;;;3.60;3.08;;;;;;;14.14;50.96;99748.63;5033955;28;20179;-83
2021/12/03 08:14:10;;;;;;;3.83;2.90;;;;;;;14.23;51.41;99744.06;5033928;28;20176;-83
2021/12/03 08:16:36;;;;;;;5.35;3.08;;;;;;;14.24;51.21;99771.63;5033356;28;20566;-85
2021/12/03 08:19:01;;;;;;;7.57;3.15;;;;;;;14.28;50.99;99760.69;5033416;28;20232;-84
2021/12/03 08:21:27;;;;;;;9.65;5.00;;;;;;;14.27;51.56;99792.44;5015707;28;20250;-89
2021/12/03 08:23:52;;;;;;;5.85;3.45;;;;;;;14.32;51.16;99792.69;5033268;28;20183;-80
2021/12/03 08:26:18;;;;;;;12.38;3.17;;;;;;;14.35;51.58;99794.56;5032729;28;20187;-81
2021/12/03 08:28:43;;;;;;;5.53;3.40;;;;;;;14.44;50.77;99784.84;5033459;28;20183;-83
2021/12/03 08:31:14;;;;;;;10.80;3.28;;;;;;;14.35;50.70;99785.16;5033325;28;20191;-79
2021/12/03 08:33:43;;;;;;;6.20;2.85;;;;;;;14.40;50.70;99806.97;5032000;28;20309;-80
2021/12/03 08:36:09;;;;;;;6.13;3.30;;;;;;;14.31;51.40;99802.13;5033402;28;20172;-80
2021/12/03 08:38:34;;;;;;;8.02;3.20;;;;;;;14.38;50.73;99784.47;5032498;28;20636;-78
2021/12/03 08:41:00;;;;;;;4.25;3.30;;;;;;;14.37;51.08;99793.00;5032818;28;20202;-79
2021/12/03 08:43:26;;;;;;;8.65;3.08;;;;;;;14.37;51.36;99806.75;5032007;28;20215;-81
2021/12/03 08:45:54;;;;;;;4.93;3.45;;;;;;;14.41;50.79;99788.09;5032745;28;20172;-83
2021/12/03 08:48:22;;;;;;;5.75;3.92;;;;;;;14.62;50.46;99801.47;5032574;28;20698;-81
2021/12/03 08:51:04;;;;;;;9.32;3.47;;;;;;;14.63;50.66;99794.63;5032727;28;20176;-81
2021/12/03 08:56:07;;;;;;;9.15;3.20;;;;;;;14.69;50.23;99798.44;5032807;28;20156;-82
2021/12/03 08:58:32;;;;;;;9.02;3.40;;;;;;;14.73;50.33;99800.41;5032274;28;20195;-78
2021/12/03 09:00:58;;;;;;;5.13;3.53;;;;;;;14.77;50.27;99804.97;5032025;28;20164;-80
2021/12/03 09:03:23;;;;;;;9.70;3.15;;;;;;;14.61;50.75;99789.38;5032701;28;20179;-80
2021/12/03 09:05:49;;;;;;;5.57;2.88;;;;;;;14.81;50.68;99802.59;5031823;28;20580;-78
2021/12/03 09:08:14;;;;;;;3.83;3.22;;;;;;;14.83;50.59;99808.69;5032241;28;20172;-82
2021/12/03 09:10:41;;;;;;;5.40;2.90;;;;;;;14.72;50.74;99778.00;5032142;28;20180;-80
2021/12/03 09:13:06;;;;;;;5.03;3.22;;;;;;;14.82;50.84;99797.50;5032114;28;20183;-81
2021/12/03 09:15:41;;;;;;;4.53;3.15;;;;;;;14.88;50.63;99763.44;5032150;28;20179;-82
2021/12/03 09:18:19;;;;;;;9.05;3.78;;;;;;;15.07;50.50;99793.81;5031945;28;20254;-87
2021/12/03 09:20:58;;;;;;;9.65;3.47;;;;;;;15.01;50.46;99776.28;5032196;28;20565;-80
2021/12/03 09:26:17;;;;;;;6.40;3.53;;;;;;;15.13;50.74;99781.25;5032355;28;20557;-83
2021/12/03 09:28:45;;;;;;;5.63;3.50;;;;;;;15.22;50.61;99793.00;5032738;28;20168;-87
2021/12/03 09:31:12;;;;;;;6.72;3.72;;;;;;;15.26;50.92;99778.59;5031993;28;20196;-83
2021/12/03 09:33:44;;;;;;;5.78;3.35;;;;;;;15.28;50.74;99774.41;5031792;28;20176;-80
2021/12/03 09:36:10;;;;;;;8.85;4.55;;;;;;;15.41;50.47;99779.47;5032006;28;20167;-84
2021/12/03 09:38:37;;;;;;;7.50;3.80;;;;;;;15.32;50.72;99754.84;5031458;28;20168;-82
2021/12/03 09:41:12;;;;;;;8.70;3.40;;;;;;;15.58;50.61;99777.00;5031621;28;20704;-83
2021/12/03 09:43:42;;;;;;;7.00;4.43;;;;;;;15.61;50.69;99775.47;5031614;28;20646;-88
2021/12/03 09:46:27;;;;;;;10.65;3.25;;;;;;;15.54;50.75;99765.56;5032027;28;20273;-86
2021/12/03 09:54:29;;;;;;;11.52;5.20;;;;;;;16.03;49.71;99772.63;5032921;28;20278;-84
2021/12/03 09:57:07;;;;;;;5.35;3.28;;;;;;;16.10;49.40;99773.03;5031836;28;20257;-83
2021/12/03 10:13:17;;;;;;;13.20;3.80;;;;;;;16.90;48.16;99759.19;5031537;28;20171;-81
2021/12/03 10:16:13;;;;;;;10.60;4.05;;;;;;;17.07;47.59;99755.78;5031343;28;20226;-78
2021/12/03 10:29:43;;;;;;;15.68;5.38;;;;;;;17.77;45.92;99760.06;5031348;28;20179;-83
2021/12/03 12:05:29;;;;;;;8.95;5.00;;;;;;;18.98;46.16;99780.28;5033427;28;20175;-79
2021/12/03 12:47:46;;;;;;;19.52;9.52;;;;;;;17.64;50.08;99794.81;5033144;28;20243;-82
2021/12/03 14:57:55;;;;;;;20.23;12.20;;;;;;;15.32;54.00;100011.22;5036002;28;20172;-82
2021/12/03 15:00:36;;;;;;;27.23;14.70;;;;;;;15.21;54.65;100032.94;5031912;28;20184;-82
2021/12/03 15:08:37;;;;;;;27.95;16.15;;;;;;;14.97;54.85;100050.34;5036518;28;20176;-83
2021/12/03 15:32:10;;;;;;;29.65;16.38;;;;;;;14.56;56.10;100064.03;5034960;28;20187;-82
2021/12/03 15:34:48;;;;;;;35.03;17.73;;;;;;;14.51;55.77;100063.72;5034326;28;20176;-82
2021/12/03 15:56:19;;;;;;;57.60;31.63;;;;;;;14.23;56.42;100097.03;5034584;28;20171;-83
2021/12/03 16:04:26;;;;;;;68.50;32.15;;;;;;;13.99;56.19;100085.09;5033660;28;20167;-84
2021/12/03 16:14:43;;;;;;;87.85;40.70;;;;;;;14.00;55.71;100149.59;5033610;28;20176;-87
2021/12/03 16:46:28;;;;;;;25.17;12.85;;;;;;;12.68;62.22;100242.06;5046171;28;20257;-86
2021/12/03 16:53:53;;;;;;;32.40;17.98;;;;;;;12.28;64.60;100233.88;5041485;28;20176;-79
2021/12/03 16:56:25;;;;;;;29.67;16.30;;;;;;;12.17;64.83;100230.47;5032359;28;20207;-77
2021/12/03 16:58:51;;;;;;;26.65;17.55;;;;;;;12.16;64.91;100226.13;5032186;28;20243;-76
2021/12/03 17:04:06;;;;;;;36.70;18.50;;;;;;;11.94;65.75;100248.34;5032227;28;20593;-78
2021/12/03 17:09:25;;;;;;;42.70;21.77;;;;;;;11.71;67.56;100260.22;5032423;28;20305;-78
2021/12/03 17:18:06;;;;;;;36.17;22.33;;;;;;;11.67;67.42;100271.00;5032308;28;20180;-77
2021/12/03 17:57:40;;;;;;;35.42;19.10;;;;;;;11.41;69.75;100309.06;5031041;28;20195;-82
2021/12/03 17:59:55;;;;;;;35.03;19.88;;;;;;;11.50;70.04;100300.44;5027876;28;20184;-78
2021/12/03 18:02:44;;;;;;;36.85;21.45;;;;;;;11.46;69.74;100297.50;5031383;28;20298;-80
2021/12/03 18:08:25;;;;;;;35.75;20.73;;;;;;;11.13;69.51;100239.22;4970512;28;20189;-82
2021/12/03 18:53:52;;;;;;;28.40;15.48;;;;;;;10.29;74.44;100384.19;5037767;28;20565;-91
2021/12/03 18:56:19;;;;;;;25.27;14.82;;;;;;;10.24;75.39;100403.31;5034633;28;20246;-79
2021/12/03 18:58:51;;;;;;;21.95;13.80;;;;;;;10.22;76.74;100408.31;5033560;28;20192;-79
2021/12/03 19:01:16;;;;;;;22.10;12.82;;;;;;;10.36;75.85;100404.44;5033662;28;20168;-79
2021/12/03 19:08:58;;;;;;;22.95;11.27;;;;;;;10.31;76.03;100388.69;5035498;28;20190;-88
2021/12/03 19:11:32;;;;;;;22.75;11.50;;;;;;;10.45;75.12;100405.25;5035033;28;20183;-86
2021/12/03 19:13:58;;;;;;;13.65;8.52;;;;;;;10.17;75.22;100366.03;5034911;28;20183;-87
2021/12/03 19:16:25;;;;;;;16.33;9.50;;;;;;;10.34;75.30;100417.13;5036757;28;20172;-86
2021/12/03 19:18:54;;;;;;;18.52;11.98;;;;;;;10.48;75.15;100426.00;5034972;28;20215;-82
2021/12/03 19:21:26;;;;;;;16.73;9.27;;;;;;;10.48;74.41;100427.66;5035777;28;20552;-86
2021/12/03 19:23:55;;;;;;;21.50;11.65;;;;;;;10.54;74.88;100444.47;5035259;28;20227;-84
2021/12/03 19:26:21;;;;;;;25.33;12.98;;;;;;;10.39;75.21;100423.53;5033390;28;20175;-81
2021/12/03 19:28:49;;;;;;;19.50;10.52;;;;;;;10.26;75.76;100401.81;5033123;28;20204;-84
2021/12/03 19:31:14;;;;;;;13.90;9.52;;;;;;;10.54;74.60;100456.38;5032881;28;20187;-82
2021/12/03 19:33:40;;;;;;;15.73;9.45;;;;;;;10.40;74.47;100461.19;5032899;28;20176;-83
2021/12/03 19:36:06;;;;;;;17.02;10.02;;;;;;;10.40;74.81;100478.19;5032635;28;20190;-81
2021/12/03 19:38:35;;;;;;;23.00;13.10;;;;;;;10.05;74.99;100428.97;5033276;28;20191;-82